Time;durP1;ratioP1;P1;durP2;ratioP2;P2;SDS_P1;SDS_P2;PMS_P1;PMS_P2;Temp;Humidity;BMP_temperature;BMP_pressure;BME280_temperature;BME280_humidity;BME280_pressure;Samples;Min_cycle;Max_cycle;Signal;HPM_P1;HPM_P2
2022/10/27 00:01:56;;;;;;;5.32;2.80;;;;;;;11.10;100.00;101391.31;5219684;28;20386;-76
2022/10/27 00:04:27;;;;;;;7.70;2.75;;;;;;;11.11;100.00;101401.72;5219134;28;20292;-77
2022/10/27 00:06:57;;;;;;;7.22;2.85;;;;;;;11.08;100.00;101396.56;5218982;28;20036;-76
2022/10/27 00:09:27;;;;;;;7.45;2.60;;;;;;;11.09;100.00;101398.28;5219641;28;20071;-77
2022/10/27 00:11:58;;;;;;;6.28;2.55;;;;;;;10.99;100.00;101395.09;5197440;28;20094;-77
2022/10/27 00:14:28;;;;;;;8.25;2.65;;;;;;;11.00;100.00;101404.66;5219165;28;20055;-77
2022/10/27 00:16:58;;;;;;;6.25;2.70;;;;;;;10.97;100.00;101412.53;5218996;28;20029;-77
2022/10/27 00:19:30;;;;;;;5.85;2.83;;;;;;;10.93;100.00;101416.13;5219058;28;20056;-77
2022/10/27 00:22:00;;;;;;;6.95;2.70;;;;;;;10.93;100.00;101416.13;5219726;28;20441;-77
2022/10/27 00:24:30;;;;;;;7.57;3.08;;;;;;;10.93;100.00;101418.75;5217295;28;20025;-77
2022/10/27 00:27:00;;;;;;;4.55;2.40;;;;;;;11.02;100.00;101416.78;5218298;28;20020;-77
2022/10/27 00:29:31;;;;;;;6.00;2.70;;;;;;;11.00;100.00;101417.72;5218274;28;20028;-76
2022/10/27 00:32:01;;;;;;;6.45;2.58;;;;;;;11.02;100.00;101421.16;5219269;28;20524;-76
2022/10/27 00:34:31;;;;;;;9.68;2.55;;;;;;;11.04;100.00;101428.94;5192144;28;20398;-76
2022/10/27 00:37:02;;;;;;;5.97;2.53;;;;;;;11.14;100.00;101432.19;5216502;28;20031;-76
2022/10/27 00:39:32;;;;;;;5.07;2.83;;;;;;;11.12;100.00;101426.97;5218948;28;20033;-76
2022/10/27 00:42:02;;;;;;;8.05;2.90;;;;;;;11.08;100.00;101433.19;5219146;28;20267;-75
2022/10/27 00:44:37;;;;;;;7.15;3.00;;;;;;;11.11;100.00;101429.66;5218813;28;20033;-76
2022/10/27 00:47:19;;;;;;;6.82;2.53;;;;;;;11.11;100.00;101435.72;5221944;28;20031;-77
2022/10/27 00:49:49;;;;;;;5.28;2.70;;;;;;;11.08;100.00;101443.66;5222570;28;20028;-77
2022/10/27 00:52:29;;;;;;;6.53;2.50;;;;;;;11.08;100.00;101435.81;5223102;28;20032;-76
2022/10/27 00:55:03;;;;;;;5.43;2.38;;;;;;;11.07;100.00;101443.72;5221410;28;20333;-76
2022/10/27 00:57:34;;;;;;;5.03;2.50;;;;;;;11.06;100.00;101442.84;5220525;28;20079;-77
2022/10/27 01:00:05;;;;;;;9.82;2.83;;;;;;;11.05;100.00;101448.09;5220741;28;20029;-77
2022/10/27 01:02:36;;;;;;;8.00;2.90;;;;;;;11.02;100.00;101447.31;5222510;28;20108;-77
2022/10/27 01:05:21;;;;;;;6.03;2.30;;;;;;;10.99;100.00;101440.41;5222635;28;20128;-77
2022/10/27 01:07:55;;;;;;;4.70;2.50;;;;;;;10.97;100.00;101439.56;5219426;28;20024;-77
2022/10/27 01:10:25;;;;;;;5.28;2.33;;;;;;;10.92;100.00;101446.69;5222239;28;20021;-77
2022/10/27 01:12:58;;;;;;;6.90;2.40;;;;;;;10.99;100.00;101447.41;5203383;28;20029;-77
2022/10/27 01:15:44;;;;;;;4.05;2.10;;;;;;;10.98;100.00;101448.25;5222908;28;20796;-77
2022/10/27 01:18:29;;;;;;;2.83;1.80;;;;;;;10.94;100.00;101446.63;5204047;28;20120;-74
2022/10/27 01:21:18;;;;;;;3.38;1.83;;;;;;;10.89;100.00;101454.56;5222489;28;20029;-77
2022/10/27 01:24:10;;;;;;;5.43;2.20;;;;;;;10.80;100.00;101456.53;5221294;28;20029;-76
2022/10/27 01:26:44;;;;;;;3.55;2.00;;;;;;;10.82;100.00;101455.63;5221760;28;20625;-76
2022/10/27 01:29:49;;;;;;;4.75;2.45;;;;;;;10.78;100.00;101459.19;5220379;28;20033;-76
2022/10/27 01:32:34;;;;;;;5.22;2.50;;;;;;;10.65;100.00;101451.66;5221169;28;20498;-77
2022/10/27 01:35:12;;;;;;;4.80;2.70;;;;;;;10.67;100.00;101455.09;5220445;28;20047;-77
2022/10/27 01:37:49;;;;;;;7.22;2.40;;;;;;;10.75;100.00;101447.94;5221139;28;20299;-77
2022/10/27 01:40:31;;;;;;;6.47;2.97;;;;;;;10.70;100.00;101442.81;5222446;28;20024;-76
2022/10/27 01:43:06;;;;;;;7.65;2.58;;;;;;;10.73;100.00;101447.13;5221870;28;20440;-76
2022/10/27 01:45:38;;;;;;;5.45;2.50;;;;;;;10.73;100.00;101447.13;5221613;28;20029;-77
2022/10/27 01:48:10;;;;;;;4.82;2.60;;;;;;;10.67;100.00;101448.09;5221278;28;20037;-76
2022/10/27 01:50:41;;;;;;;4.85;2.67;;;;;;;10.61;100.00;101448.25;5220807;28;20033;-76
2022/10/27 01:53:12;;;;;;;8.00;2.35;;;;;;;10.60;100.00;101438.69;5221878;28;20036;-77
2022/10/27 01:56:01;;;;;;;3.15;2.10;;;;;;;10.56;100.00;101450.13;5222092;28;20032;-76
2022/10/27 01:58:51;;;;;;;4.63;2.00;;;;;;;10.56;100.00;101446.63;5219254;28;20597;-76
2022/10/27 02:01:43;;;;;;;4.32;2.00;;;;;;;10.59;100.00;101450.03;5220343;28;20431;-74
2022/10/27 02:04:35;;;;;;;5.40;2.33;;;;;;;10.56;100.00;101450.13;5220561;28;20219;-76
2022/10/27 02:07:12;;;;;;;4.88;2.35;;;;;;;10.61;100.00;101450.00;5201765;28;20031;-76
2022/10/27 02:09:49;;;;;;;3.47;2.15;;;;;;;10.54;100.00;101451.03;5220365;28;20025;-76
2022/10/27 02:12:31;;;;;;;5.07;2.70;;;;;;;10.58;100.00;101455.28;5221978;28;20025;-77
2022/10/27 02:15:06;;;;;;;6.15;2.65;;;;;;;10.67;100.00;101449.88;5220246;28;20283;-77
2022/10/27 02:17:42;;;;;;;4.43;2.63;;;;;;;10.62;100.00;101455.19;5220784;28;20044;-76
2022/10/27 02:20:22;;;;;;;5.80;2.67;;;;;;;10.74;100.00;101459.28;5221858;28;20032;-77
2022/10/27 02:22:54;;;;;;;5.82;2.83;;;;;;;10.66;100.00;101454.22;5221842;28;20025;-77
2022/10/27 02:25:31;;;;;;;8.18;3.05;;;;;;;10.67;100.00;101463.78;5220683;28;20040;-76
2022/10/27 02:28:05;;;;;;;6.75;2.63;;;;;;;10.74;100.00;101459.28;5219259;28;20021;-76
2022/10/27 02:30:37;;;;;;;6.55;3.03;;;;;;;10.70;100.00;101466.34;5220172;28;20380;-77
2022/10/27 02:33:09;;;;;;;4.40;2.83;;;;;;;10.68;100.00;101468.13;5220402;28;20044;-76
2022/10/27 02:35:40;;;;;;;7.47;2.90;;;;;;;10.65;100.00;101465.59;5220862;28;20037;-76
2022/10/27 02:38:11;;;;;;;10.48;3.08;;;;;;;10.82;100.00;101466.06;5219808;28;20073;-76
2022/10/27 02:40:41;;;;;;;4.25;2.60;;;;;;;10.82;100.00;101466.06;5219093;28;20498;-77
2022/10/27 02:43:11;;;;;;;5.38;2.88;;;;;;;10.73;100.00;101470.66;5220819;28;20033;-76
2022/10/27 02:45:41;;;;;;;9.35;3.03;;;;;;;10.73;100.00;101475.88;5220630;28;20131;-76
2022/10/27 02:48:12;;;;;;;8.27;2.95;;;;;;;10.66;100.00;101474.31;5190776;28;20507;-76
2022/10/27 02:50:42;;;;;;;7.97;2.88;;;;;;;10.64;100.00;101476.94;5220674;28;20040;-76
2022/10/27 02:53:12;;;;;;;5.20;2.42;;;;;;;10.62;100.00;101488.31;5220758;28;20043;-77
2022/10/27 02:55:42;;;;;;;6.72;2.38;;;;;;;10.47;100.00;101476.44;5220782;28;20025;-77
2022/10/27 02:58:13;;;;;;;4.90;2.33;;;;;;;10.30;100.00;101485.47;5193756;28;20051;-76
2022/10/27 03:00:43;;;;;;;4.70;2.30;;;;;;;10.27;100.00;101490.78;5220824;28;20024;-77
2022/10/27 03:03:13;;;;;;;8.25;2.58;;;;;;;10.25;100.00;101487.34;5220534;28;20124;-74
2022/10/27 03:05:43;;;;;;;5.60;2.70;;;;;;;10.23;100.00;101489.13;5220309;28;20449;-76
2022/10/27 03:08:15;;;;;;;5.38;2.60;;;;;;;10.24;100.00;101494.34;5220242;28;20672;-76
2022/10/27 03:10:45;;;;;;;4.75;2.58;;;;;;;10.36;100.00;101498.44;5220326;28;20021;-76
2022/10/27 03:13:15;;;;;;;4.72;2.70;;;;;;;10.40;100.00;101506.22;5202812;28;20025;-76
2022/10/27 03:15:46;;;;;;;5.75;2.95;;;;;;;10.36;100.00;101506.28;5219654;28;20025;-77
2022/10/27 03:18:16;;;;;;;3.38;1.63;;;;;;;10.34;100.00;101513.31;5219849;28;20524;-76
2022/10/27 03:20:46;;;;;;;3.03;2.00;;;;;;;10.26;100.00;101515.19;5220203;28;20406;-76
2022/10/27 03:23:17;;;;;;;3.65;2.20;;;;;;;10.01;100.00;101519.13;5219479;28;20037;-77
2022/10/27 03:25:47;;;;;;;2.88;2.10;;;;;;;10.01;100.00;101513.91;5219679;28;20473;-76
2022/10/27 03:28:18;;;;;;;2.35;1.90;;;;;;;10.18;100.00;101507.50;5218178;28;20111;-77
2022/10/27 03:30:48;;;;;;;3.35;1.60;;;;;;;10.19;100.00;101519.66;5220196;28;20429;-76
2022/10/27 03:33:18;;;;;;;2.90;1.58;;;;;;;10.31;100.00;101508.97;5219064;28;20040;-77
2022/10/27 03:35:48;;;;;;;2.72;1.83;;;;;;;10.26;100.00;101509.97;5219558;28;20393;-76
2022/10/27 03:38:19;;;;;;;4.07;1.58;;;;;;;10.28;100.00;101516.00;5218941;28;20025;-77
2022/10/27 03:40:49;;;;;;;2.97;2.20;;;;;;;10.28;100.00;101519.50;5219476;28;20039;-76
2022/10/27 03:43:20;;;;;;;4.53;2.15;;;;;;;10.11;100.00;101521.56;5220224;28;20180;-76
2022/10/27 03:45:50;;;;;;;8.73;2.22;;;;;;;10.16;100.00;101527.56;5219875;28;20035;-76
2022/10/27 03:48:20;;;;;;;4.85;2.25;;;;;;;10.08;100.00;101528.59;5219645;28;20029;-76
2022/10/27 03:50:50;;;;;;;5.20;2.63;;;;;;;10.07;100.00;101532.09;5220295;28;20445;-76
2022/10/27 03:53:21;;;;;;;8.32;2.42;;;;;;;10.17;100.00;101533.66;5218286;28;20025;-76
2022/10/27 03:55:51;;;;;;;4.47;2.20;;;;;;;10.16;100.00;101526.72;5219299;28;20029;-77
2022/10/27 03:58:21;;;;;;;6.68;2.65;;;;;;;9.95;100.00;101527.91;5218940;28;20025;-75
2022/10/27 04:00:52;;;;;;;5.22;2.78;;;;;;;9.95;100.00;101524.44;5219771;28;20029;-77
2022/10/27 04:03:22;;;;;;;5.65;2.65;;;;;;;9.97;100.00;101523.53;5220132;28;20511;-76
2022/10/27 04:05:52;;;;;;;3.60;2.38;;;;;;;9.99;100.00;101528.75;5218387;28;20390;-76
2022/10/27 04:08:23;;;;;;;4.45;2.40;;;;;;;10.04;100.00;101542.59;5218748;28;20025;-77
2022/10/27 04:10:53;;;;;;;7.05;2.40;;;;;;;10.01;100.00;101532.19;5218697;28;20082;-76
2022/10/27 04:13:23;;;;;;;6.03;2.20;;;;;;;9.99;100.00;101536.56;5219515;28;20070;-75
2022/10/27 04:15:55;;;;;;;5.80;2.30;;;;;;;10.09;100.00;101541.63;5218871;28;20437;-77
2022/10/27 04:18:25;;;;;;;3.13;2.00;;;;;;;10.08;100.00;101539.91;5217700;28;20051;-76
2022/10/27 04:21:00;;;;;;;6.20;2.00;;;;;;;10.05;100.00;101541.72;5220487;28;20021;-76
2022/10/27 04:23:30;;;;;;;4.70;2.22;;;;;;;9.97;100.00;101549.66;5222881;28;20572;-77
2022/10/27 04:26:00;;;;;;;4.10;2.20;;;;;;;9.98;100.00;101550.53;5222903;28;20036;-75
2022/10/27 04:28:31;;;;;;;4.68;2.38;;;;;;;9.95;100.00;101550.53;5201631;28;20029;-76
2022/10/27 04:31:01;;;;;;;3.65;2.30;;;;;;;9.94;100.00;101549.72;5221682;28;20041;-76
2022/10/27 04:33:31;;;;;;;9.15;3.10;;;;;;;9.98;100.00;101550.53;5222903;28;20082;-77
2022/10/27 04:36:02;;;;;;;5.22;2.65;;;;;;;10.03;100.00;101552.16;5222854;28;20029;-77
2022/10/27 04:38:32;;;;;;;7.75;2.90;;;;;;;10.02;100.00;101549.59;5203696;28;20043;-76
2022/10/27 04:41:03;;;;;;;7.65;3.47;;;;;;;10.02;100.00;101552.22;5223141;28;20515;-76
2022/10/27 04:43:33;;;;;;;5.35;3.05;;;;;;;10.01;100.00;101555.69;5196991;28;20036;-77
2022/10/27 04:46:03;;;;;;;6.45;2.80;;;;;;;9.98;100.00;101551.38;5223328;28;20031;-76
2022/10/27 04:48:33;;;;;;;6.95;2.85;;;;;;;10.02;100.00;101553.06;5202861;28;20028;-76
2022/10/27 04:51:04;;;;;;;5.25;2.78;;;;;;;9.96;100.00;101550.53;5222894;28;20036;-75
2022/10/27 04:53:34;;;;;;;4.88;2.70;;;;;;;9.91;100.00;101549.75;5222654;28;20031;-77
2022/10/27 04:56:05;;;;;;;4.00;2.45;;;;;;;9.96;100.00;101545.31;5222488;28;20500;-76
2022/10/27 04:58:35;;;;;;;7.30;2.90;;;;;;;10.03;100.00;101540.88;5222687;28;20024;-76
2022/10/27 05:01:11;;;;;;;5.63;2.72;;;;;;;10.08;100.00;101544.25;5222430;28;20361;-76
2022/10/27 05:03:41;;;;;;;6.50;2.83;;;;;;;10.05;100.00;101541.72;5220186;28;20029;-76
2022/10/27 05:06:11;;;;;;;6.55;2.60;;;;;;;10.04;100.00;101543.47;5222583;28;20028;-75
2022/10/27 05:08:41;;;;;;;7.93;3.15;;;;;;;9.98;100.00;101534.84;5221479;28;20024;-76
2022/10/27 05:11:12;;;;;;;6.72;3.17;;;;;;;9.93;100.00;101541.88;5222243;28;20445;-76
2022/10/27 05:13:42;;;;;;;6.05;2.67;;;;;;;9.92;100.00;101546.25;5223023;28;20118;-76
2022/10/27 05:16:13;;;;;;;5.10;2.72;;;;;;;9.86;100.00;101545.50;5222359;28;20095;-76
2022/10/27 05:18:43;;;;;;;7.53;3.35;;;;;;;9.91;100.00;101541.94;5221832;28;20039;-76
2022/10/27 05:21:13;;;;;;;4.45;2.83;;;;;;;9.84;100.00;101539.44;5221962;28;20231;-76
2022/10/27 05:23:44;;;;;;;5.30;2.85;;;;;;;9.74;100.00;101538.75;5222222;28;20128;-76
2022/10/27 05:26:14;;;;;;;6.25;2.50;;;;;;;9.67;100.00;101538.88;5221653;28;20051;-76
2022/10/27 05:28:46;;;;;;;5.97;2.80;;;;;;;9.68;100.00;101527.53;5220116;28;20035;-77
2022/10/27 05:31:17;;;;;;;4.45;2.53;;;;;;;9.81;100.00;101536.91;5220991;28;20039;-76
2022/10/27 05:33:47;;;;;;;4.78;2.65;;;;;;;9.79;100.00;101544.75;5220314;28;20025;-77
2022/10/27 05:36:17;;;;;;;7.43;3.20;;;;;;;9.84;100.00;101548.13;5221421;28;20530;-76
2022/10/27 05:38:47;;;;;;;5.95;2.80;;;;;;;9.87;100.00;101547.22;5220373;28;20040;-76
2022/10/27 05:41:18;;;;;;;7.65;3.03;;;;;;;9.99;100.00;101557.47;5219438;28;20036;-76
2022/10/27 05:43:48;;;;;;;5.80;3.00;;;;;;;9.93;100.00;101554.94;5220581;28;20094;-76
2022/10/27 05:46:18;;;;;;;7.90;3.20;;;;;;;10.01;100.00;101560.91;5220628;28;20070;-77
2022/10/27 05:48:49;;;;;;;8.88;3.28;;;;;;;9.94;100.00;101557.53;5221225;28;20390;-76
2022/10/27 05:51:19;;;;;;;7.13;2.80;;;;;;;9.91;100.00;101565.44;5201678;28;20025;-76
2022/10/27 05:53:50;;;;;;;8.93;4.57;;;;;;;9.99;100.00;101554.84;5221683;28;20185;-77
2022/10/27 05:56:20;;;;;;;9.20;3.50;;;;;;;9.94;100.00;101557.53;5220775;28;20082;-76
2022/10/27 05:58:51;;;;;;;7.18;3.25;;;;;;;10.01;100.00;101555.69;5221244;28;20101;-76
2022/10/27 06:01:21;;;;;;;6.10;3.03;;;;;;;10.13;100.00;101555.50;5221767;28;20505;-75
2022/10/27 06:03:51;;;;;;;5.72;3.00;;;;;;;10.09;100.00;101564.25;5197976;28;20016;-76
2022/10/27 06:06:21;;;;;;;6.95;2.95;;;;;;;10.03;100.00;101559.16;5219618;28;20120;-74
2022/10/27 06:08:52;;;;;;;7.63;3.10;;;;;;;9.94;100.00;101559.28;5221246;28;20027;-76
2022/10/27 06:11:22;;;;;;;5.78;2.90;;;;;;;10.09;100.00;101559.03;5221833;28;20471;-76
2022/10/27 06:13:52;;;;;;;6.35;2.78;;;;;;;10.23;100.00;101551.81;5221354;28;20064;-76
2022/10/27 06:16:25;;;;;;;6.32;2.95;;;;;;;10.11;100.00;101555.53;5221173;28;20132;-76
2022/10/27 06:18:56;;;;;;;4.45;3.00;;;;;;;9.96;100.00;101553.16;5198215;28;20029;-75
2022/10/27 06:21:26;;;;;;;6.63;3.33;;;;;;;10.04;100.00;101558.28;5221289;28;20029;-77
2022/10/27 06:23:56;;;;;;;7.13;3.15;;;;;;;10.16;100.00;101555.44;5201543;28;20029;-76
2022/10/27 06:26:27;;;;;;;9.13;3.60;;;;;;;10.11;100.00;101555.53;5220224;28;20150;-75
2022/10/27 06:28:57;;;;;;;5.85;3.30;;;;;;;10.16;100.00;101558.06;5198363;28;20029;-76
2022/10/27 06:31:28;;;;;;;7.10;3.70;;;;;;;10.19;100.00;101568.44;5220409;28;20029;-76
2022/10/27 06:33:58;;;;;;;7.10;3.75;;;;;;;10.19;100.00;101566.69;5220943;28;20071;-76
2022/10/27 06:36:28;;;;;;;6.45;3.45;;;;;;;10.32;100.00;101572.56;5220889;28;20112;-76
2022/10/27 06:38:58;;;;;;;6.78;4.05;;;;;;;10.33;100.00;101569.06;5218982;28;20033;-76
2022/10/27 06:41:29;;;;;;;8.70;4.25;;;;;;;10.50;100.00;101572.22;5221607;28;20167;-75
2022/10/27 06:43:59;;;;;;;8.63;4.30;;;;;;;10.70;100.00;101581.38;5220725;28;20598;-76
2022/10/27 06:46:29;;;;;;;10.88;4.22;;;;;;;10.99;100.00;101583.41;5219119;28;20025;-73
2022/10/27 06:49:00;;;;;;;8.43;4.20;;;;;;;11.16;100.00;101585.63;5221043;28;20021;-76
2022/10/27 06:51:30;;;;;;;10.43;4.28;;;;;;;11.18;100.00;101580.34;5220592;28;20035;-76
2022/10/27 06:54:00;;;;;;;10.27;4.40;;;;;;;11.31;100.00;101587.03;5221342;28;20024;-76
2022/10/27 06:56:31;;;;;;;9.18;4.00;;;;;;;11.39;100.00;101585.97;5220119;28;20437;-76
2022/10/27 06:59:01;;;;;;;9.45;4.00;;;;;;;11.36;100.00;101585.16;5220453;28;20029;-76
2022/10/27 07:01:31;;;;;;;7.93;3.97;;;;;;;11.54;100.00;101585.63;5220563;28;20029;-76
2022/10/27 07:04:01;;;;;;;7.30;3.97;;;;;;;11.55;100.00;101587.34;5219771;28;20039;-76
2022/10/27 07:06:32;;;;;;;7.40;4.05;;;;;;;11.77;100.00;101583.34;5220579;28;20042;-76
2022/10/27 07:09:02;;;;;;;10.55;4.35;;;;;;;11.84;100.00;101581.44;5221304;28;20041;-76
2022/10/27 07:11:32;;;;;;;10.75;4.60;;;;;;;11.88;100.00;101591.81;5220544;28;20307;-76
2022/10/27 07:14:03;;;;;;;9.88;4.85;;;;;;;12.00;100.00;101591.50;5220926;28;20541;-76
2022/10/27 07:16:33;;;;;;;9.15;4.20;;;;;;;12.07;100.00;101587.81;5219910;28;20017;-76
2022/10/27 07:19:06;;;;;;;11.45;4.10;;;;;;;12.21;100.00;101598.81;5236692;22;20045;-94
2022/10/27 07:21:39;;;;;;;10.57;4.30;;;;;;;12.28;100.00;101587.25;5223293;28;20025;-93
2022/10/27 07:24:15;;;;;;;7.18;3.80;;;;;;;12.40;100.00;101593.94;5225407;28;20083;-93
2022/10/27 07:27:12;;;;;;;10.05;4.57;;;;;;;12.45;100.00;101594.69;5222624;28;20032;-93
2022/10/27 07:29:43;;;;;;;10.02;4.70;;;;;;;12.63;100.00;101595.03;5213069;28;20485;-93
2022/10/27 07:32:13;;;;;;;14.25;5.38;;;;;;;12.46;100.00;101596.41;5229032;22;20486;-76
2022/10/27 07:34:43;;;;;;;6.85;3.75;;;;;;;12.47;100.00;101596.34;5218473;28;20052;-76
2022/10/27 07:37:14;;;;;;;6.78;3.97;;;;;;;12.72;100.00;101600.03;5211681;28;20060;-76
2022/10/27 07:39:44;;;;;;;9.13;4.03;;;;;;;13.38;100.00;101598.09;5215901;28;20033;-76
2022/10/27 07:42:16;;;;;;;5.68;3.38;;;;;;;14.29;100.00;101595.06;5202181;28;20107;-76
2022/10/27 07:44:46;;;;;;;8.40;3.08;;;;;;;14.93;100.00;101595.38;5219789;28;20425;-76
2022/10/27 07:47:16;;;;;;;7.88;2.70;;;;;;;15.40;100.00;101594.44;5219429;28;20233;-75
2022/10/27 07:49:47;;;;;;;5.20;2.10;;;;;;;16.54;100.00;101589.66;5200700;28;20154;-76
2022/10/27 07:52:17;;;;;;;4.75;2.08;;;;;;;16.78;100.00;101592.06;5219202;28;20287;-75
2022/10/27 07:54:47;;;;;;;5.60;2.00;;;;;;;17.97;100.00;101587.25;5219074;28;20080;-76
2022/10/27 07:57:17;;;;;;;5.00;1.80;;;;;;;17.96;94.24;101587.31;5217668;28;20364;-76
2022/10/27 07:59:48;;;;;;;5.77;1.83;;;;;;;18.44;94.72;101592.81;5218537;28;20278;-76
2022/10/27 08:02:18;;;;;;;3.50;1.40;;;;;;;19.17;95.85;101596.81;5219255;28;20341;-77
2022/10/27 08:04:48;;;;;;;8.33;1.77;;;;;;;19.39;88.94;101595.56;5218079;28;20835;-76
2022/10/27 08:07:18;;;;;;;3.33;1.40;;;;;;;20.12;92.66;101593.09;5219186;28;20760;-77
2022/10/27 08:09:49;;;;;;;4.33;1.30;;;;;;;20.30;86.42;101584.03;5201233;28;20271;-77
2022/10/27 08:12:19;;;;;;;4.22;1.33;;;;;;;20.85;86.17;101590.41;5219252;28;20313;-77
2022/10/27 08:14:50;;;;;;;6.57;1.42;;;;;;;21.50;83.97;101587.13;5201278;28;20101;-76
2022/10/27 08:17:20;;;;;;;4.43;1.40;;;;;;;21.70;81.80;101589.38;5200844;28;20036;-77
2022/10/27 08:19:50;;;;;;;3.33;1.20;;;;;;;21.51;82.35;101589.69;5219014;28;20056;-77
2022/10/27 08:22:21;;;;;;;3.90;1.38;;;;;;;21.19;86.27;101595.34;5219133;28;20753;-77
2022/10/27 08:24:51;;;;;;;4.90;1.10;;;;;;;20.95;86.70;101604.84;5219035;28;20498;-76
2022/10/27 08:27:21;;;;;;;5.33;1.30;;;;;;;21.17;85.11;101594.56;5218358;28;20673;-76
2022/10/27 08:29:51;;;;;;;7.00;1.47;;;;;;;19.97;90.91;101612.53;5218493;28;20275;-76
2022/10/27 08:32:22;;;;;;;5.32;1.48;;;;;;;20.43;90.19;101603.63;5219298;28;20333;-76
2022/10/27 08:34:52;;;;;;;5.77;1.30;;;;;;;20.30;89.80;101607.94;5218742;28;20035;-76
2022/10/27 08:37:22;;;;;;;4.47;1.30;;;;;;;20.18;89.06;101599.84;5218340;28;20718;-77
2022/10/27 08:39:52;;;;;;;3.88;1.52;;;;;;;19.56;94.48;101606.09;5218413;28;20107;-77
2022/10/27 08:42:36;;;;;;;3.03;1.33;;;;;;;19.33;96.54;101603.00;5218138;28;20495;-76
2022/10/27 08:45:16;;;;;;;3.30;1.10;;;;;;;18.83;98.29;101599.53;5196061;28;20692;-76
2022/10/27 08:47:46;;;;;;;8.50;2.33;;;;;;;18.26;100.00;101604.31;5217900;28;20471;-76
2022/10/27 08:50:21;;;;;;;7.75;1.88;;;;;;;18.21;100.00;101601.03;5218043;28;20032;-76
2022/10/27 08:52:57;;;;;;;5.93;1.75;;;;;;;17.83;100.00;101595.00;5219004;28;20747;-77
2022/10/27 08:55:31;;;;;;;4.50;1.80;;;;;;;17.92;100.00;101593.69;5218630;28;20390;-76
2022/10/27 08:58:15;;;;;;;8.70;1.60;;;;;;;17.90;100.00;101595.56;5217483;28;20029;-75
2022/10/27 09:01:10;;;;;;;4.95;1.55;;;;;;;17.67;100.00;101596.69;5218218;28;20032;-76
2022/10/27 09:03:46;;;;;;;6.85;1.60;;;;;;;17.79;100.00;101597.91;5218862;28;20479;-77
2022/10/27 09:06:23;;;;;;;6.88;1.70;;;;;;;17.80;100.00;101589.03;5218879;28;20437;-76
2022/10/27 09:09:02;;;;;;;4.43;1.40;;;;;;;17.67;100.00;101591.38;5221735;28;20478;-76
2022/10/27 09:12:02;;;;;;;7.20;1.48;;;;;;;17.80;100.00;101583.75;5222280;28;20414;-76
2022/10/27 09:14:51;;;;;;;6.57;1.45;;;;;;;17.60;100.00;101592.63;5220996;28;20033;-77
2022/10/27 09:17:46;;;;;;;4.80;1.20;;;;;;;17.88;100.00;101578.91;5217022;28;20482;-77
2022/10/27 09:20:38;;;;;;;5.22;1.30;;;;;;;18.22;100.00;101582.47;5221048;28;21382;-76
2022/10/27 09:23:14;;;;;;;6.03;1.30;;;;;;;18.32;100.00;101569.63;5221741;28;20032;-75
2022/10/27 09:25:50;;;;;;;3.03;0.90;;;;;;;18.34;100.00;101573.06;5221997;28;20029;-77
2022/10/27 09:28:59;;;;;;;3.53;1.15;;;;;;;18.63;100.00;101572.38;5203791;28;20020;-76
2022/10/27 09:31:36;;;;;;;3.38;1.08;;;;;;;18.57;100.00;101575.34;5220271;28;20040;-75
2022/10/27 09:34:22;;;;;;;4.07;1.08;;;;;;;18.69;100.00;101575.56;5221939;28;20029;-77
2022/10/27 09:36:52;;;;;;;;;;;;;;;18.66;100.00;101569.59;5198133;28;20154;-76
2022/10/27 09:39:22;;;;;;;4.73;1.13;;;;;;;18.74;100.00;101562.94;5221839;28;20004;-77
2022/10/27 09:41:53;;;;;;;6.38;1.25;;;;;;;18.67;100.00;101568.66;5222407;28;20430;-76
2022/10/27 09:44:25;;;;;;;5.07;1.33;;;;;;;18.75;100.00;101568.16;5222066;28;20394;-77
2022/10/27 09:46:56;;;;;;;4.50;1.38;;;;;;;18.62;100.00;101573.31;5222226;28;20776;-75
2022/10/27 09:49:33;;;;;;;4.07;1.17;;;;;;;18.69;100.00;101572.91;5221398;28;20032;-76
2022/10/27 09:52:11;;;;;;;5.00;1.15;;;;;;;18.66;100.00;101567.78;5219377;28;20020;-77
2022/10/27 09:54:50;;;;;;;2.78;1.13;;;;;;;18.59;100.00;101577.00;5220892;28;20028;-77
2022/10/27 09:57:25;;;;;;;8.05;1.40;;;;;;;18.62;100.00;101568.88;5220089;28;20032;-76
2022/10/27 09:59:59;;;;;;;7.20;1.20;;;;;;;18.79;100.00;101559.09;5203070;28;20056;-76
2022/10/27 10:02:35;;;;;;;4.13;1.17;;;;;;;18.82;100.00;101558.97;5221099;28;20029;-76
2022/10/27 10:05:27;;;;;;;9.32;1.40;;;;;;;18.75;100.00;101564.66;5221319;28;20483;-75
2022/10/27 10:08:22;;;;;;;4.10;1.30;;;;;;;18.73;100.00;101563.88;5220280;28;20033;-76
2022/10/27 10:11:16;;;;;;;4.55;1.30;;;;;;;18.80;100.00;101555.50;5220246;28;20033;-77
2022/10/27 10:13:58;;;;;;;6.15;1.65;;;;;;;18.81;100.00;101562.53;5221614;28;20305;-76
2022/10/27 10:16:28;;;;;;;4.60;1.20;;;;;;;18.90;100.00;101563.84;5219615;28;20017;-77
2022/10/27 10:19:25;;;;;;;10.20;2.13;;;;;;;18.89;100.00;101570.06;5220170;28;20029;-76
2022/10/27 10:21:59;;;;;;;6.68;1.38;;;;;;;19.03;100.00;101562.22;5213029;28;20048;-77
2022/10/27 10:24:33;;;;;;;5.60;1.42;;;;;;;19.20;100.00;101555.09;5219728;28;20561;-76
2022/10/27 10:27:05;;;;;;;7.18;1.35;;;;;;;19.20;100.00;101555.09;5220641;28;20035;-76
2022/10/27 10:29:56;;;;;;;3.55;1.00;;;;;;;19.18;100.00;101545.50;5220372;28;20017;-76
2022/10/27 10:32:30;;;;;;;4.60;1.60;;;;;;;19.28;100.00;101547.56;5221181;28;20090;-76
2022/10/27 10:35:01;;;;;;;6.75;1.27;;;;;;;19.36;100.00;101555.97;5220659;28;20029;-75
2022/10/27 10:37:42;;;;;;;4.38;0.95;;;;;;;19.55;100.00;101540.72;5219072;28;20028;-76
2022/10/27 10:40:12;;;;;;;5.25;1.20;;;;;;;19.54;100.00;101539.00;5218994;28;20284;-76
2022/10/27 10:42:44;;;;;;;3.17;1.10;;;;;;;19.54;100.00;101535.47;5220530;28;20486;-76
2022/10/27 10:45:24;;;;;;;4.60;1.15;;;;;;;19.54;100.00;101539.00;5220366;28;20017;-75
2022/10/27 10:48:01;;;;;;;3.33;1.30;;;;;;;19.60;100.00;101537.81;5219523;28;20481;-77
2022/10/27 10:50:42;;;;;;;7.35;1.55;;;;;;;19.47;100.00;101537.63;5218943;28;20715;-74
2022/10/27 10:53:25;;;;;;;5.85;1.40;;;;;;;19.42;100.00;101537.03;5219174;28;20074;-77
2022/10/27 10:55:58;;;;;;;4.47;1.30;;;;;;;19.41;100.00;101531.84;5219641;28;20024;-76
2022/10/27 10:58:31;;;;;;;6.57;1.58;;;;;;;19.46;100.00;101537.72;5219644;28;20421;-75
2022/10/27 11:01:05;;;;;;;7.03;1.80;;;;;;;19.52;100.00;101537.38;5220255;28;20421;-76
2022/10/27 11:03:42;;;;;;;5.47;1.60;;;;;;;19.66;100.00;101535.66;5219137;28;20020;-77
2022/10/27 11:06:18;;;;;;;5.28;1.40;;;;;;;19.65;100.00;101525.97;5219091;28;20021;-76
2022/10/27 11:09:00;;;;;;;3.72;1.30;;;;;;;19.82;100.00;101523.19;5218173;28;20040;-77
2022/10/27 11:11:38;;;;;;;3.35;1.08;;;;;;;19.83;100.00;101522.28;5218038;28;20409;-76
2022/10/27 11:14:14;;;;;;;4.78;1.40;;;;;;;19.81;97.34;101505.56;5220399;28;20025;-76
2022/10/27 11:16:51;;;;;;;3.25;1.17;;;;;;;19.85;100.00;101501.81;5219005;28;20054;-76
2022/10/27 11:19:22;;;;;;;5.22;1.30;;;;;;;19.77;98.72;101519.94;5220370;28;20035;-78
2022/10/27 11:22:01;;;;;;;4.25;1.50;;;;;;;19.86;99.67;101513.25;5219369;28;20025;-77
2022/10/27 11:24:45;;;;;;;3.85;1.13;;;;;;;19.97;98.68;101516.16;5220170;28;20094;-76
2022/10/27 11:27:22;;;;;;;4.97;1.35;;;;;;;19.96;99.91;101517.94;5217906;28;20017;-76
2022/10/27 11:30:12;;;;;;;5.88;1.65;;;;;;;19.93;99.65;101504.84;5218937;28;20053;-76
2022/10/27 11:32:49;;;;;;;6.82;1.92;;;;;;;19.92;100.00;101500.47;5219900;28;20023;-76
2022/10/27 11:35:27;;;;;;;5.75;1.30;;;;;;;19.81;100.00;101496.75;5220354;28;20025;-76
2022/10/27 11:38:11;;;;;;;6.18;1.55;;;;;;;19.83;98.90;101498.38;5218967;28;20032;-80
2022/10/27 11:41:04;;;;;;;5.72;1.90;;;;;;;19.80;100.00;101492.41;5218350;28;20047;-77
2022/10/27 11:43:49;;;;;;;4.30;1.70;;;;;;;19.92;100.00;101492.53;5215964;28;20036;-76
2022/10/27 11:46:31;;;;;;;4.50;1.30;;;;;;;20.06;100.00;101486.41;5219205;28;20048;-77
2022/10/27 11:49:13;;;;;;;8.18;1.70;;;;;;;20.11;99.75;101481.72;5219292;28;20056;-76
2022/10/27 11:51:49;;;;;;;4.60;1.58;;;;;;;20.10;99.44;101491.47;5218238;28;20025;-76